sensor_id;sensor_type;location;lat;lon;timestamp;pressure;altitude;pressure_sealevel;temperature;humidity
44027;BME280;29696;55.698;37.460;2023-03-14T00:00:11;99205.19;;;-2.95;64.55
44027;BME280;29696;55.698;37.460;2023-03-14T00:02:39;99194.66;;;-2.91;64.19
44027;BME280;29696;55.698;37.460;2023-03-14T00:05:06;99189.25;;;-2.85;63.95
44027;BME280;29696;55.698;37.460;2023-03-14T00:07:36;99182.94;;;-2.78;63.87
44027;BME280;29696;55.698;37.460;2023-03-14T00:10:12;99172.41;;;-2.73;63.67
44027;BME280;29696;55.698;37.460;2023-03-14T00:12:40;99160.31;;;-2.72;63.77
44027;BME280;29696;55.698;37.460;2023-03-14T00:15:08;99153.41;;;-2.72;63.65
44027;BME280;29696;55.698;37.460;2023-03-14T00:17:35;99139.44;;;-2.68;63.70
44027;BME280;29696;55.698;37.460;2023-03-14T00:20:06;99145.06;;;-2.58;63.97
44027;BME280;29696;55.698;37.460;2023-03-14T00:22:38;99139.63;;;-2.52;63.63
44027;BME280;29696;55.698;37.460;2023-03-14T00:25:06;99120.50;;;-2.48;63.88
44027;BME280;29696;55.698;37.460;2023-03-14T00:27:33;99125.47;;;-2.43;64.10
44027;BME280;29696;55.698;37.460;2023-03-14T00:29:59;99096.00;;;-2.39;64.07
44027;BME280;29696;55.698;37.460;2023-03-14T00:32:25;99118.41;;;-2.40;64.11
44027;BME280;29696;55.698;37.460;2023-03-14T00:34:52;99102.84;;;-2.38;64.48
44027;BME280;29696;55.698;37.460;2023-03-14T00:37:18;99110.59;;;-2.38;64.65
44027;BME280;29696;55.698;37.460;2023-03-14T00:39:45;99119.06;;;-2.35;65.40
44027;BME280;29696;55.698;37.460;2023-03-14T00:42:11;99120.81;;;-2.35;65.85
44027;BME280;29696;55.698;37.460;2023-03-14T00:44:38;99095.88;;;-2.36;66.40
44027;BME280;29696;55.698;37.460;2023-03-14T00:47:06;99105.22;;;-2.34;67.36
44027;BME280;29696;55.698;37.460;2023-03-14T00:49:33;99110.34;;;-2.32;67.93
44027;BME280;29696;55.698;37.460;2023-03-14T00:51:59;99111.03;;;-2.28;68.06
44027;BME280;29696;55.698;37.460;2023-03-14T00:54:26;99116.34;;;-2.32;68.44
44027;BME280;29696;55.698;37.460;2023-03-14T00:56:52;99108.53;;;-2.30;69.04
44027;BME280;29696;55.698;37.460;2023-03-14T00:59:18;99101.75;;;-2.33;69.97
44027;BME280;29696;55.698;37.460;2023-03-14T01:01:45;99097.31;;;-2.31;70.23
44027;BME280;29696;55.698;37.460;2023-03-14T01:04:12;99109.50;;;-2.33;70.83
44027;BME280;29696;55.698;37.460;2023-03-14T01:06:39;99095.78;;;-2.35;71.31
44027;BME280;29696;55.698;37.460;2023-03-14T01:09:05;99079.34;;;-2.34;72.07
44027;BME280;29696;55.698;37.460;2023-03-14T01:11:34;99087.97;;;-2.33;71.99
44027;BME280;29696;55.698;37.460;2023-03-14T01:14:01;99085.44;;;-2.35;72.54
44027;BME280;29696;55.698;37.460;2023-03-14T01:16:30;99093.19;;;-2.35;73.11
44027;BME280;29696;55.698;37.460;2023-03-14T01:19:01;99080.53;;;-2.41;74.24
44027;BME280;29696;55.698;37.460;2023-03-14T01:21:31;99089.81;;;-2.37;75.14
44027;BME280;29696;55.698;37.460;2023-03-14T01:23:59;99068.50;;;-2.42;75.68
44027;BME280;29696;55.698;37.460;2023-03-14T01:26:27;99051.22;;;-2.41;76.03
44027;BME280;29696;55.698;37.460;2023-03-14T01:28:56;99054.78;;;-2.44;76.27
44027;BME280;29696;55.698;37.460;2023-03-14T01:31:23;99024.94;;;-2.51;76.74
44027;BME280;29696;55.698;37.460;2023-03-14T01:33:50;99028.25;;;-2.49;77.31
44027;BME280;29696;55.698;37.460;2023-03-14T01:36:17;99018.88;;;-2.52;77.42
44027;BME280;29696;55.698;37.460;2023-03-14T01:38:44;99032.69;;;-2.51;78.00
44027;BME280;29696;55.698;37.460;2023-03-14T01:41:17;99028.25;;;-2.49;78.54
44027;BME280;29696;55.698;37.460;2023-03-14T01:43:44;99006.53;;;-2.45;79.04
44027;BME280;29696;55.698;37.460;2023-03-14T01:46:33;99005.28;;;-2.36;79.28
44027;BME280;29696;55.698;37.460;2023-03-14T01:49:30;98988.03;;;-2.36;78.94
44027;BME280;29696;55.698;37.460;2023-03-14T01:52:05;98977.31;;;-2.47;79.74
44027;BME280;29696;55.698;37.460;2023-03-14T01:55:07;98999.25;;;-2.37;80.34
44027;BME280;29696;55.698;37.460;2023-03-14T01:57:38;98989.97;;;-2.41;80.43
44027;BME280;29696;55.698;37.460;2023-03-14T02:00:11;98980.25;;;-2.36;80.35
44027;BME280;29696;55.698;37.460;2023-03-14T02:02:46;98949.94;;;-2.34;80.78
44027;BME280;29696;55.698;37.460;2023-03-14T02:05:19;98978.88;;;-2.24;81.01
44027;BME280;29696;55.698;37.460;2023-03-14T02:07:57;98958.91;;;-2.22;80.66
44027;BME280;29696;55.698;37.460;2023-03-14T02:10:32;98956.25;;;-2.20;80.42
44027;BME280;29696;55.698;37.460;2023-03-14T02:13:03;98953.72;;;-2.22;80.64
44027;BME280;29696;55.698;37.460;2023-03-14T02:15:49;98951.13;;;-2.22;81.06
44027;BME280;29696;55.698;37.460;2023-03-14T02:18:42;98948.50;;;-2.20;81.58
44027;BME280;29696;55.698;37.460;2023-03-14T02:21:38;98955.13;;;-2.15;81.78
44027;BME280;29696;55.698;37.460;2023-03-14T02:24:27;98944.66;;;-2.12;81.83
44027;BME280;29696;55.698;37.460;2023-03-14T02:27:13;98938.97;;;-2.20;82.32
44027;BME280;29696;55.698;37.460;2023-03-14T02:30:13;98916.38;;;-2.16;82.53
44027;BME280;29696;55.698;37.460;2023-03-14T02:32:45;98899.22;;;-2.19;82.79
44027;BME280;29696;55.698;37.460;2023-03-14T02:35:18;98885.25;;;-2.15;83.40
44027;BME280;29696;55.698;37.460;2023-03-14T02:40:59;98873.81;;;-2.11;84.22
44027;BME280;29696;55.698;37.460;2023-03-14T02:43:27;98893.41;;;-2.05;84.60
44027;BME280;29696;55.698;37.460;2023-03-14T02:46:00;98882.84;;;-2.00;84.64
44027;BME280;29696;55.698;37.460;2023-03-14T02:48:41;98883.75;;;-2.01;85.22
44027;BME280;29696;55.698;37.460;2023-03-14T02:51:11;98867.22;;;-1.99;85.21
44027;BME280;29696;55.698;37.460;2023-03-14T02:53:38;98871.34;;;-1.95;85.03
44027;BME280;29696;55.698;37.460;2023-03-14T02:56:10;98873.91;;;-1.95;85.27
44027;BME280;29696;55.698;37.460;2023-03-14T02:58:38;98884.06;;;-1.90;85.78
44027;BME280;29696;55.698;37.460;2023-03-14T03:01:19;98876.22;;;-1.89;86.03
44027;BME280;29696;55.698;37.460;2023-03-14T03:03:45;98882.94;;;-1.85;86.38
44027;BME280;29696;55.698;37.460;2023-03-14T03:06:12;98882.16;;;-1.87;86.44
44027;BME280;29696;55.698;37.460;2023-03-14T03:08:38;98891.34;;;-1.79;85.94
44027;BME280;29696;55.698;37.460;2023-03-14T03:11:06;98879.91;;;-1.75;86.33
44027;BME280;29696;55.698;37.460;2023-03-14T03:13:34;98864.19;;;-1.72;86.36
44027;BME280;29696;55.698;37.460;2023-03-14T03:16:02;98866.69;;;-1.71;85.86
44027;BME280;29696;55.698;37.460;2023-03-14T03:18:29;98861.63;;;-1.72;85.98
44027;BME280;29696;55.698;37.460;2023-03-14T03:20:55;98866.63;;;-1.69;85.44
44027;BME280;29696;55.698;37.460;2023-03-14T03:23:22;98859.03;;;-1.72;85.70
44027;BME280;29696;55.698;37.460;2023-03-14T03:25:50;98839.06;;;-1.70;86.30
44027;BME280;29696;55.698;37.460;2023-03-14T03:28:18;98832.88;;;-1.68;86.67
44027;BME280;29696;55.698;37.460;2023-03-14T03:30:45;98837.91;;;-1.65;86.72
44027;BME280;29696;55.698;37.460;2023-03-14T03:33:12;98820.38;;;-1.59;86.92
44027;BME280;29696;55.698;37.460;2023-03-14T03:35:49;98815.72;;;-1.53;87.06
44027;BME280;29696;55.698;37.460;2023-03-14T03:38:21;98811.09;;;-1.46;87.46
44027;BME280;29696;55.698;37.460;2023-03-14T03:40:50;98819.44;;;-1.41;87.41
44027;BME280;29696;55.698;37.460;2023-03-14T03:43:17;98789.09;;;-1.39;87.07
44027;BME280;29696;55.698;37.460;2023-03-14T03:45:46;98801.06;;;-1.36;86.88
44027;BME280;29696;55.698;37.460;2023-03-14T03:48:13;98805.09;;;-1.31;87.12
44027;BME280;29696;55.698;37.460;2023-03-14T03:50:44;98813.38;;;-1.24;87.23
44027;BME280;29696;55.698;37.460;2023-03-14T03:53:11;98791.00;;;-1.25;87.21
44027;BME280;29696;55.698;37.460;2023-03-14T03:55:41;98799.28;;;-1.19;87.47
44027;BME280;29696;55.698;37.460;2023-03-14T03:58:09;98798.19;;;-1.15;87.48
44027;BME280;29696;55.698;37.460;2023-03-14T04:00:35;98797.84;;;-1.08;87.78
44027;BME280;29696;55.698;37.460;2023-03-14T04:03:02;98799.38;;;-1.04;87.95
44027;BME280;29696;55.698;37.460;2023-03-14T04:05:28;98790.50;;;-1.00;87.79
44027;BME280;29696;55.698;37.460;2023-03-14T04:08:01;98786.75;;;-0.95;87.83
44027;BME280;29696;55.698;37.460;2023-03-14T04:10:29;98789.25;;;-0.93;87.71
44027;BME280;29696;55.698;37.460;2023-03-14T04:13:11;98786.31;;;-0.87;87.65
44027;BME280;29696;55.698;37.460;2023-03-14T04:15:39;98779.91;;;-0.80;87.98
44027;BME280;29696;55.698;37.460;2023-03-14T04:18:15;98781.31;;;-0.74;87.84
44027;BME280;29696;55.698;37.460;2023-03-14T04:20:44;98774.97;;;-0.68;87.87
44027;BME280;29696;55.698;37.460;2023-03-14T04:23:11;98777.22;;;-0.62;87.77
44027;BME280;29696;55.698;37.460;2023-03-14T04:25:37;98756.97;;;-0.56;87.53
44027;BME280;29696;55.698;37.460;2023-03-14T04:28:05;98769.94;;;-0.56;87.29
44027;BME280;29696;55.698;37.460;2023-03-14T04:30:32;98756.78;;;-0.53;87.22
44027;BME280;29696;55.698;37.460;2023-03-14T04:33:08;98734.19;;;-0.51;86.62
44027;BME280;29696;55.698;37.460;2023-03-14T04:35:39;98749.47;;;-0.46;86.93
44027;BME280;29696;55.698;37.460;2023-03-14T04:38:09;98760.34;;;-0.39;87.28
44027;BME280;29696;55.698;37.460;2023-03-14T04:40:40;98749.38;;;-0.29;87.19
44027;BME280;29696;55.698;37.460;2023-03-14T04:43:08;98739.56;;;-0.24;87.00
44027;BME280;29696;55.698;37.460;2023-03-14T04:45:42;98737.16;;;-0.12;87.19
44027;BME280;29696;55.698;37.460;2023-03-14T04:48:10;98729.13;;;-0.08;86.94
44027;BME280;29696;55.698;37.460;2023-03-14T04:50:37;98720.03;;;-0.01;86.48
44027;BME280;29696;55.698;37.460;2023-03-14T04:53:04;98727.38;;;0.07;86.71
44027;BME280;29696;55.698;37.460;2023-03-14T04:55:32;98711.69;;;0.09;86.57
44027;BME280;29696;55.698;37.460;2023-03-14T04:57:59;98711.50;;;0.12;86.16
44027;BME280;29696;55.698;37.460;2023-03-14T05:00:26;98694.66;;;0.19;85.93
44027;BME280;29696;55.698;37.460;2023-03-14T05:03:15;98705.13;;;0.32;86.14
44027;BME280;29696;55.698;37.460;2023-03-14T05:06:02;98684.72;;;0.40;86.38
44027;BME280;29696;55.698;37.460;2023-03-14T05:08:47;98691.84;;;0.51;86.12
44027;BME280;29696;55.698;37.460;2023-03-14T05:11:32;98664.56;;;0.58;85.83
44027;BME280;29696;55.698;37.460;2023-03-14T05:14:28;98671.03;;;0.79;85.73
44027;BME280;29696;55.698;37.460;2023-03-14T05:17:33;98663.50;;;0.75;84.88
44027;BME280;29696;55.698;37.460;2023-03-14T05:20:23;98672.78;;;0.79;84.50
44027;BME280;29696;55.698;37.460;2023-03-14T05:23:07;98676.78;;;0.84;84.14
44027;BME280;29696;55.698;37.460;2023-03-14T05:26:06;98668.66;;;0.89;83.43
44027;BME280;29696;55.698;37.460;2023-03-14T05:28:52;98659.38;;;0.99;83.60
44027;BME280;29696;55.698;37.460;2023-03-14T05:31:30;98670.00;;;1.09;83.50
44027;BME280;29696;55.698;37.460;2023-03-14T05:34:22;98682.63;;;1.15;82.88
44027;BME280;29696;55.698;37.460;2023-03-14T05:37:06;98682.16;;;1.23;82.41
44027;BME280;29696;55.698;37.460;2023-03-14T05:39:49;98695.59;;;1.29;81.81
44027;BME280;29696;55.698;37.460;2023-03-14T05:42:33;98689.25;;;1.33;80.83
44027;BME280;29696;55.698;37.460;2023-03-14T05:45:31;98691.38;;;1.41;80.40
44027;BME280;29696;55.698;37.460;2023-03-14T05:48:23;98694.19;;;1.51;80.19
44027;BME280;29696;55.698;37.460;2023-03-14T05:51:01;98697.63;;;1.51;79.48
44027;BME280;29696;55.698;37.460;2023-03-14T05:53:46;98716.09;;;1.61;79.53
44027;BME280;29696;55.698;37.460;2023-03-14T05:56:33;98706.75;;;1.71;79.27
44027;BME280;29696;55.698;37.460;2023-03-14T05:59:32;98718.13;;;1.83;78.76
44027;BME280;29696;55.698;37.460;2023-03-14T06:02:30;98714.81;;;1.94;78.01
44027;BME280;29696;55.698;37.460;2023-03-14T06:05:04;98714.31;;;2.01;76.73
44027;BME280;29696;55.698;37.460;2023-03-14T06:07:31;98699.28;;;2.05;76.63
44027;BME280;29696;55.698;37.460;2023-03-14T06:09:57;98706.69;;;2.11;76.68
44027;BME280;29696;55.698;37.460;2023-03-14T06:12:25;98696.81;;;2.16;75.93
44027;BME280;29696;55.698;37.460;2023-03-14T06:14:51;98699.31;;;2.31;75.85
44027;BME280;29696;55.698;37.460;2023-03-14T06:17:17;98688.03;;;2.43;75.21
44027;BME280;29696;55.698;37.460;2023-03-14T06:19:59;98685.94;;;2.61;74.34
44027;BME280;29696;55.698;37.460;2023-03-14T06:22:25;98687.97;;;2.68;73.22
44027;BME280;29696;55.698;37.460;2023-03-14T06:24:52;98693.09;;;2.70;72.77
44027;BME280;29696;55.698;37.460;2023-03-14T06:27:20;98694.97;;;2.68;72.75
44027;BME280;29696;55.698;37.460;2023-03-14T06:29:47;98673.38;;;2.66;72.88
44027;BME280;29696;55.698;37.460;2023-03-14T06:32:13;98686.63;;;2.63;72.79
44027;BME280;29696;55.698;37.460;2023-03-14T06:34:39;98679.66;;;2.63;72.33
44027;BME280;29696;55.698;37.460;2023-03-14T06:37:07;98680.50;;;2.64;72.75
44027;BME280;29696;55.698;37.460;2023-03-14T06:39:33;98690.50;;;2.70;72.71
44027;BME280;29696;55.698;37.460;2023-03-14T06:42:06;98685.38;;;2.68;71.99
44027;BME280;29696;55.698;37.460;2023-03-14T06:44:33;98680.50;;;2.64;71.87
44027;BME280;29696;55.698;37.460;2023-03-14T06:47:00;98677.25;;;2.60;71.81
44027;BME280;29696;55.698;37.460;2023-03-14T06:49:26;98656.91;;;2.65;71.82
44027;BME280;29696;55.698;37.460;2023-03-14T06:51:54;98679.09;;;2.71;71.77
44027;BME280;29696;55.698;37.460;2023-03-14T06:54:21;98691.28;;;2.83;71.81
44027;BME280;29696;55.698;37.460;2023-03-14T06:56:48;98688.03;;;2.92;71.07
44027;BME280;29696;55.698;37.460;2023-03-14T06:59:14;98687.78;;;3.08;70.96
44027;BME280;29696;55.698;37.460;2023-03-14T07:01:41;98687.34;;;3.14;69.85
44027;BME280;29696;55.698;37.460;2023-03-14T07:04:10;98694.94;;;3.17;69.35
44027;BME280;29696;55.698;37.460;2023-03-14T07:06:40;98689.50;;;3.20;69.43
44027;BME280;29696;55.698;37.460;2023-03-14T07:09:11;98699.50;;;3.27;69.66
44027;BME280;29696;55.698;37.460;2023-03-14T07:11:41;98690.50;;;3.31;69.35
44027;BME280;29696;55.698;37.460;2023-03-14T07:14:08;98699.78;;;3.35;68.92
44027;BME280;29696;55.698;37.460;2023-03-14T07:16:34;98701.31;;;3.37;68.89
44027;BME280;29696;55.698;37.460;2023-03-14T07:19:02;98696.22;;;3.36;69.11
44027;BME280;29696;55.698;37.460;2023-03-14T07:21:29;98704.44;;;3.42;69.52
44027;BME280;29696;55.698;37.460;2023-03-14T07:23:55;98710.06;;;3.49;68.94
44027;BME280;29696;55.698;37.460;2023-03-14T07:26:21;98708.41;;;3.48;68.36
44027;BME280;29696;55.698;37.460;2023-03-14T07:28:51;98704.34;;;3.44;68.68
44027;BME280;29696;55.698;37.460;2023-03-14T07:31:19;98705.41;;;3.41;68.71
44027;BME280;29696;55.698;37.460;2023-03-14T07:33:46;98704.22;;;3.46;68.52
44027;BME280;29696;55.698;37.460;2023-03-14T07:36:13;98702.72;;;3.54;68.46
44027;BME280;29696;55.698;37.460;2023-03-14T07:38:42;98704.88;;;3.60;67.82
44027;BME280;29696;55.698;37.460;2023-03-14T07:41:47;98706.53;;;3.61;68.23
44027;BME280;29696;55.698;37.460;2023-03-14T07:44:46;98704.75;;;3.62;68.04
44027;BME280;29696;55.698;37.460;2023-03-14T07:47:12;98701.81;;;3.66;68.01
44027;BME280;29696;55.698;37.460;2023-03-14T07:49:38;98713.81;;;3.69;67.35
44027;BME280;29696;55.698;37.460;2023-03-14T07:52:05;98719.78;;;3.71;67.39
44027;BME280;29696;55.698;37.460;2023-03-14T07:54:31;98701.34;;;3.73;66.64
44027;BME280;29696;55.698;37.460;2023-03-14T07:56:57;98696.03;;;3.74;66.46
44027;BME280;29696;55.698;37.460;2023-03-14T07:59:27;98692.84;;;3.82;66.89
44027;BME280;29696;55.698;37.460;2023-03-14T08:01:53;98693.34;;;3.87;66.55
44027;BME280;29696;55.698;37.460;2023-03-14T08:04:20;98692.41;;;3.99;66.37
44027;BME280;29696;55.698;37.460;2023-03-14T08:06:46;98707.75;;;4.04;66.72
44027;BME280;29696;55.698;37.460;2023-03-14T08:09:12;98720.25;;;4.11;66.86
44027;BME280;29696;55.698;37.460;2023-03-14T08:11:38;98710.28;;;4.17;66.75
44027;BME280;29696;55.698;37.460;2023-03-14T08:14:05;98729.28;;;4.19;66.55
44027;BME280;29696;55.698;37.460;2023-03-14T08:16:31;98687.91;;;4.12;67.09
44027;BME280;29696;55.698;37.460;2023-03-14T08:18:57;98712.53;;;4.10;67.66
44027;BME280;29696;55.698;37.460;2023-03-14T08:21:23;98720.69;;;4.05;68.35
44027;BME280;29696;55.698;37.460;2023-03-14T08:23:50;98709.28;;;4.06;69.06
44027;BME280;29696;55.698;37.460;2023-03-14T08:26:16;98730.94;;;4.08;68.61
44027;BME280;29696;55.698;37.460;2023-03-14T08:28:42;98716.78;;;4.11;68.29
44027;BME280;29696;55.698;37.460;2023-03-14T08:31:09;98720.38;;;4.10;67.63
44027;BME280;29696;55.698;37.460;2023-03-14T08:33:35;98714.06;;;4.12;67.39
44027;BME280;29696;55.698;37.460;2023-03-14T08:36:01;98716.56;;;4.14;66.43
44027;BME280;29696;55.698;37.460;2023-03-14T08:38:28;98704.31;;;4.15;66.25
44027;BME280;29696;55.698;37.460;2023-03-14T08:41:01;98721.91;;;4.24;66.18
44027;BME280;29696;55.698;37.460;2023-03-14T08:43:28;98711.22;;;4.27;65.56
44027;BME280;29696;55.698;37.460;2023-03-14T08:45:58;98708.75;;;4.37;65.26
44027;BME280;29696;55.698;37.460;2023-03-14T08:48:25;98721.22;;;4.33;64.85
44027;BME280;29696;55.698;37.460;2023-03-14T08:50:51;98713.97;;;4.37;64.92
44027;BME280;29696;55.698;37.460;2023-03-14T08:53:17;98716.25;;;4.41;64.37
44027;BME280;29696;55.698;37.460;2023-03-14T08:55:44;98704.97;;;4.52;64.01
44027;BME280;29696;55.698;37.460;2023-03-14T08:58:10;98709.25;;;4.64;63.84
44027;BME280;29696;55.698;37.460;2023-03-14T09:00:37;98710.56;;;4.70;63.00
44027;BME280;29696;55.698;37.460;2023-03-14T09:03:03;98700.91;;;4.70;62.83
44027;BME280;29696;55.698;37.460;2023-03-14T09:05:32;98707.47;;;4.76;62.89
44027;BME280;29696;55.698;37.460;2023-03-14T09:07:59;98698.41;;;4.69;62.28
44027;BME280;29696;55.698;37.460;2023-03-14T09:10:25;98693.91;;;4.71;62.38
44027;BME280;29696;55.698;37.460;2023-03-14T09:12:52;98691.53;;;4.79;62.12
44027;BME280;29696;55.698;37.460;2023-03-14T09:15:18;98690.41;;;4.81;61.88
44027;BME280;29696;55.698;37.460;2023-03-14T09:17:44;98701.59;;;4.84;61.29
44027;BME280;29696;55.698;37.460;2023-03-14T09:20:11;98701.50;;;4.85;61.57
44027;BME280;29696;55.698;37.460;2023-03-14T09:22:37;98699.00;;;4.84;61.29
44027;BME280;29696;55.698;37.460;2023-03-14T09:25:04;98712.31;;;4.80;61.56
44027;BME280;29696;55.698;37.460;2023-03-14T09:27:30;98706.00;;;4.83;61.29
44027;BME280;29696;55.698;37.460;2023-03-14T09:29:57;98704.81;;;4.87;60.89
44027;BME280;29696;55.698;37.460;2023-03-14T09:32:23;98727.06;;;4.81;60.93
44027;BME280;29696;55.698;37.460;2023-03-14T09:34:49;98723.63;;;4.81;61.06
44027;BME280;29696;55.698;37.460;2023-03-14T09:37:15;98712.91;;;4.84;61.21
44027;BME280;29696;55.698;37.460;2023-03-14T09:39:43;98696.03;;;4.88;60.55
44027;BME280;29696;55.698;37.460;2023-03-14T09:42:14;98697.34;;;4.94;61.06
44027;BME280;29696;55.698;37.460;2023-03-14T09:47:40;98701.94;;;5.01;60.29
44027;BME280;29696;55.698;37.460;2023-03-14T09:50:13;98710.63;;;5.13;60.27
44027;BME280;29696;55.698;37.460;2023-03-14T09:52:42;98703.22;;;5.18;59.84
44027;BME280;29696;55.698;37.460;2023-03-14T09:55:32;98712.00;;;5.29;59.73
44027;BME280;29696;55.698;37.460;2023-03-14T09:58:03;98707.97;;;5.24;59.44
44027;BME280;29696;55.698;37.460;2023-03-14T10:00:31;98716.19;;;5.20;59.50
44027;BME280;29696;55.698;37.460;2023-03-14T10:06:13;98722.88;;;5.24;59.65
44027;BME280;29696;55.698;37.460;2023-03-14T10:08:44;98695.84;;;5.23;59.53
44027;BME280;29696;55.698;37.460;2023-03-14T10:11:15;98705.69;;;5.31;59.24
44027;BME280;29696;55.698;37.460;2023-03-14T10:14:08;98687.28;;;5.54;59.68
44027;BME280;29696;55.698;37.460;2023-03-14T10:16:40;98685.00;;;5.60;59.94
44027;BME280;29696;55.698;37.460;2023-03-14T10:19:10;98672.66;;;5.72;59.22
44027;BME280;29696;55.698;37.460;2023-03-14T10:22:00;98663.72;;;5.75;58.60
44027;BME280;29696;55.698;37.460;2023-03-14T10:24:54;98662.78;;;5.97;58.85
44027;BME280;29696;55.698;37.460;2023-03-14T10:27:28;98664.59;;;5.96;58.75
44027;BME280;29696;55.698;37.460;2023-03-14T10:29:57;98669.22;;;5.92;58.58
44027;BME280;29696;55.698;37.460;2023-03-14T10:32:35;98679.00;;;5.90;58.28
44027;BME280;29696;55.698;37.460;2023-03-14T10:35:34;98688.75;;;6.00;58.42
44027;BME280;29696;55.698;37.460;2023-03-14T10:38:02;98689.75;;;5.87;58.01
44027;BME280;29696;55.698;37.460;2023-03-14T10:40:49;98688.50;;;6.03;58.31
44027;BME280;29696;55.698;37.460;2023-03-14T10:43:30;98652.78;;;5.90;57.87
44027;BME280;29696;55.698;37.460;2023-03-14T10:45:59;98665.75;;;5.92;57.79
44027;BME280;29696;55.698;37.460;2023-03-14T10:48:50;98664.81;;;6.14;58.06
44027;BME280;29696;55.698;37.460;2023-03-14T10:51:37;98666.94;;;6.20;57.40
44027;BME280;29696;55.698;37.460;2023-03-14T10:54:19;98652.56;;;6.24;57.38
44027;BME280;29696;55.698;37.460;2023-03-14T10:56:56;98646.94;;;6.29;56.72
44027;BME280;29696;55.698;37.460;2023-03-14T10:59:22;98647.34;;;6.24;56.23
44027;BME280;29696;55.698;37.460;2023-03-14T11:02:20;98659.63;;;6.54;56.05
44027;BME280;29696;55.698;37.460;2023-03-14T11:05:08;98645.88;;;6.81;55.23
44027;BME280;29696;55.698;37.460;2023-03-14T11:07:41;98656.44;;;7.01;54.41
44027;BME280;29696;55.698;37.460;2023-03-14T11:10:40;98645.28;;;7.28;53.81
44027;BME280;29696;55.698;37.460;2023-03-14T11:13:39;98615.13;;;7.42;53.25
44027;BME280;29696;55.698;37.460;2023-03-14T11:23:14;98625.22;;;7.46;52.26
44027;BME280;29696;55.698;37.460;2023-03-14T11:26:24;98660.91;;;7.29;52.76
44027;BME280;29696;55.698;37.460;2023-03-14T11:29:45;98659.09;;;7.20;52.60
44027;BME280;29696;55.698;37.460;2023-03-14T11:36:43;98674.94;;;6.99;52.73
44027;BME280;29696;55.698;37.460;2023-03-14T11:39:15;98648.28;;;6.94;52.83
44027;BME280;29696;55.698;37.460;2023-03-14T11:41:52;98663.47;;;6.91;53.04
44027;BME280;29696;55.698;37.460;2023-03-14T11:44:23;98629.44;;;6.79;53.18
44027;BME280;29696;55.698;37.460;2023-03-14T11:50:36;98663.84;;;6.76;53.22
44027;BME280;29696;55.698;37.460;2023-03-14T11:56:34;98675.56;;;6.72;53.15
44027;BME280;29696;55.698;37.460;2023-03-14T11:59:09;98684.25;;;6.63;53.13
44027;BME280;29696;55.698;37.460;2023-03-14T12:01:54;98690.66;;;6.70;52.90
44027;BME280;29696;55.698;37.460;2023-03-14T12:04:45;98658.88;;;6.73;52.86
44027;BME280;29696;55.698;37.460;2023-03-14T12:07:40;98679.59;;;6.76;53.00
44027;BME280;29696;55.698;37.460;2023-03-14T12:10:15;98665.75;;;6.65;52.69
44027;BME280;29696;55.698;37.460;2023-03-14T12:12:42;98677.91;;;6.66;52.55
44027;BME280;29696;55.698;37.460;2023-03-14T12:15:19;98687.88;;;6.72;52.68
44027;BME280;29696;55.698;37.460;2023-03-14T12:17:46;98673.28;;;6.58;52.74
44027;BME280;29696;55.698;37.460;2023-03-14T12:20:24;98668.75;;;6.60;52.89
44027;BME280;29696;55.698;37.460;2023-03-14T12:22:56;98685.75;;;6.56;52.85
44027;BME280;29696;55.698;37.460;2023-03-14T12:25:30;98685.56;;;6.48;53.11
44027;BME280;29696;55.698;37.460;2023-03-14T12:28:20;98690.16;;;6.55;53.17
44027;BME280;29696;55.698;37.460;2023-03-14T12:30:47;98677.50;;;6.39;53.01
44027;BME280;29696;55.698;37.460;2023-03-14T12:33:36;98699.41;;;6.50;53.04
44027;BME280;29696;55.698;37.460;2023-03-14T12:36:04;98688.81;;;6.40;53.40
44027;BME280;29696;55.698;37.460;2023-03-14T12:38:59;98692.19;;;6.52;53.56
44027;BME280;29696;55.698;37.460;2023-03-14T12:41:51;98711.44;;;6.52;53.87
44027;BME280;29696;55.698;37.460;2023-03-14T12:44:50;98712.00;;;6.56;53.84
44027;BME280;29696;55.698;37.460;2023-03-14T12:47:45;98719.97;;;6.54;54.44
44027;BME280;29696;55.698;37.460;2023-03-14T12:50:20;98694.53;;;6.45;55.09
44027;BME280;29696;55.698;37.460;2023-03-14T13:02:42;98696.13;;;6.36;55.47
44027;BME280;29696;55.698;37.460;2023-03-14T13:05:20;98676.81;;;6.37;54.93
44027;BME280;29696;55.698;37.460;2023-03-14T13:08:08;98686.09;;;6.42;54.49
44027;BME280;29696;55.698;37.460;2023-03-14T13:10:48;98687.88;;;6.41;54.38
44027;BME280;29696;55.698;37.460;2023-03-14T13:13:35;98683.47;;;6.42;53.89
44027;BME280;29696;55.698;37.460;2023-03-14T13:16:03;98675.00;;;6.28;53.26
44027;BME280;29696;55.698;37.460;2023-03-14T13:18:41;98683.94;;;6.26;53.66
44027;BME280;29696;55.698;37.460;2023-03-14T13:21:19;98680.91;;;6.30;53.55
44027;BME280;29696;55.698;37.460;2023-03-14T13:26:55;98674.41;;;6.25;52.89
44027;BME280;29696;55.698;37.460;2023-03-14T13:29:24;98668.72;;;6.20;53.08
44027;BME280;29696;55.698;37.460;2023-03-14T13:32:02;98684.72;;;6.16;53.01
44027;BME280;29696;55.698;37.460;2023-03-14T13:34:36;98674.22;;;6.16;52.99
44027;BME280;29696;55.698;37.460;2023-03-14T13:37:02;98684.00;;;6.14;53.13
44027;BME280;29696;55.698;37.460;2023-03-14T13:39:29;98688.03;;;6.18;52.96
44027;BME280;29696;55.698;37.460;2023-03-14T13:41:59;98678.09;;;6.22;52.56
44027;BME280;29696;55.698;37.460;2023-03-14T13:44:49;98672.09;;;6.31;53.02
44027;BME280;29696;55.698;37.460;2023-03-14T13:47:19;98678.09;;;6.22;52.54
44027;BME280;29696;55.698;37.460;2023-03-14T13:49:48;98665.97;;;6.21;52.53
44027;BME280;29696;55.698;37.460;2023-03-14T13:52:36;98673.31;;;6.27;52.75
44027;BME280;29696;55.698;37.460;2023-03-14T13:55:06;98672.44;;;6.17;52.72
44027;BME280;29696;55.698;37.460;2023-03-14T13:57:51;98669.66;;;6.18;52.41
44027;BME280;29696;55.698;37.460;2023-03-14T14:00:26;98675.75;;;6.19;52.53
44027;BME280;29696;55.698;37.460;2023-03-14T14:02:59;98679.06;;;6.21;52.87
44027;BME280;29696;55.698;37.460;2023-03-14T14:05:27;98682.09;;;6.16;52.67
44027;BME280;29696;55.698;37.460;2023-03-14T14:07:54;98676.25;;;6.13;52.24
44027;BME280;29696;55.698;37.460;2023-03-14T14:10:21;98679.59;;;6.15;52.54